sensor_id;sensor_type;location;lat;lon;timestamp;pressure;altitude;pressure_sealevel;temperature;humidity
26043;BME280;13818;52.156;5.382;2022-12-24T00:00:37;100262.63;;;10.51;100.00
26043;BME280;13818;52.156;5.382;2022-12-24T00:03:03;100261.59;;;10.53;100.00
26043;BME280;13818;52.156;5.382;2022-12-24T00:05:29;100272.09;;;10.56;100.00
26043;BME280;13818;52.156;5.382;2022-12-24T00:07:56;100269.25;;;10.60;100.00
26043;BME280;13818;52.156;5.382;2022-12-24T00:10:23;100274.56;;;10.60;100.00
26043;BME280;13818;52.156;5.382;2022-12-24T00:12:49;100276.63;;;10.54;100.00
26043;BME280;13818;52.156;5.382;2022-12-24T00:15:17;100282.28;;;10.48;100.00
26043;BME280;13818;52.156;5.382;2022-12-24T00:17:44;100287.63;;;10.48;100.00
26043;BME280;13818;52.156;5.382;2022-12-24T00:20:10;100292.63;;;10.54;100.00
26043;BME280;13818;52.156;5.382;2022-12-24T00:22:37;100291.00;;;10.52;100.00
26043;BME280;13818;52.156;5.382;2022-12-24T00:25:04;100297.25;;;10.51;100.00
26043;BME280;13818;52.156;5.382;2022-12-24T00:27:31;100296.56;;;10.47;100.00
26043;BME280;13818;52.156;5.382;2022-12-24T00:29:57;100295.38;;;10.53;100.00
26043;BME280;13818;52.156;5.382;2022-12-24T00:32:25;100298.88;;;10.53;100.00
26043;BME280;13818;52.156;5.382;2022-12-24T00:34:51;100288.66;;;10.46;100.00
26043;BME280;13818;52.156;5.382;2022-12-24T00:37:18;100312.53;;;10.47;100.00
26043;BME280;13818;52.156;5.382;2022-12-24T00:39:44;100298.69;;;10.40;100.00
26043;BME280;13818;52.156;5.382;2022-12-24T00:42:10;100313.81;;;10.40;100.00
26043;BME280;13818;52.156;5.382;2022-12-24T00:44:37;100320.41;;;10.33;100.00
26043;BME280;13818;52.156;5.382;2022-12-24T00:47:03;100326.47;;;10.36;100.00
26043;BME280;13818;52.156;5.382;2022-12-24T00:49:31;100331.19;;;10.30;100.00
26043;BME280;13818;52.156;5.382;2022-12-24T00:51:57;100323.22;;;10.30;100.00
26043;BME280;13818;52.156;5.382;2022-12-24T00:54:24;100331.13;;;10.31;100.00
26043;BME280;13818;52.156;5.382;2022-12-24T00:56:50;100335.31;;;10.37;100.00
26043;BME280;13818;52.156;5.382;2022-12-24T00:59:17;100341.31;;;10.40;100.00
26043;BME280;13818;52.156;5.382;2022-12-24T01:01:43;100349.31;;;10.40;100.00
26043;BME280;13818;52.156;5.382;2022-12-24T01:04:10;100356.66;;;10.35;100.00
26043;BME280;13818;52.156;5.382;2022-12-24T01:06:55;100357.47;;;10.37;100.00
26043;BME280;13818;52.156;5.382;2022-12-24T01:09:21;100359.56;;;10.31;100.00
26043;BME280;13818;52.156;5.382;2022-12-24T01:11:48;100370.41;;;10.28;100.00
26043;BME280;13818;52.156;5.382;2022-12-24T01:14:14;100381.44;;;10.37;100.00
26043;BME280;13818;52.156;5.382;2022-12-24T01:16:41;100377.28;;;10.32;100.00
26043;BME280;13818;52.156;5.382;2022-12-24T01:19:07;100389.03;;;10.28;100.00
26043;BME280;13818;52.156;5.382;2022-12-24T01:21:35;100392.63;;;10.26;100.00
26043;BME280;13818;52.156;5.382;2022-12-24T01:24:03;100396.38;;;10.22;100.00
26043;BME280;13818;52.156;5.382;2022-12-24T01:26:29;100402.28;;;10.29;100.00
26043;BME280;13818;52.156;5.382;2022-12-24T01:28:55;100405.50;;;10.36;100.00
26043;BME280;13818;52.156;5.382;2022-12-24T01:31:22;100407.34;;;10.34;100.00
26043;BME280;13818;52.156;5.382;2022-12-24T01:33:48;100410.09;;;10.32;100.00
26043;BME280;13818;52.156;5.382;2022-12-24T01:36:15;100404.69;;;10.34;100.00
26043;BME280;13818;52.156;5.382;2022-12-24T01:38:41;100416.22;;;10.34;100.00
26043;BME280;13818;52.156;5.382;2022-12-24T01:41:14;100415.69;;;10.28;100.00
26043;BME280;13818;52.156;5.382;2022-12-24T01:44:23;100414.34;;;10.19;100.00
26043;BME280;13818;52.156;5.382;2022-12-24T01:46:52;100409.56;;;10.08;100.00
26043;BME280;13818;52.156;5.382;2022-12-24T01:49:21;100414.72;;;10.11;100.00
26043;BME280;13818;52.156;5.382;2022-12-24T01:51:50;100414.88;;;10.08;100.00
26043;BME280;13818;52.156;5.382;2022-12-24T01:54:22;100425.00;;;10.01;100.00
26043;BME280;13818;52.156;5.382;2022-12-24T01:56:56;100426.84;;;9.99;100.00
26043;BME280;13818;52.156;5.382;2022-12-24T01:59:23;100434.00;;;9.99;100.00
26043;BME280;13818;52.156;5.382;2022-12-24T02:01:50;100438.31;;;10.01;100.00
26043;BME280;13818;52.156;5.382;2022-12-24T02:04:24;100440.72;;;10.06;100.00
26043;BME280;13818;52.156;5.382;2022-12-24T02:06:53;100442.03;;;9.97;100.00
26043;BME280;13818;52.156;5.382;2022-12-24T02:09:20;100446.69;;;9.93;100.00
26043;BME280;13818;52.156;5.382;2022-12-24T02:11:46;100449.34;;;9.93;100.00
26043;BME280;13818;52.156;5.382;2022-12-24T02:14:15;100451.03;;;9.94;100.00
26043;BME280;13818;52.156;5.382;2022-12-24T02:16:46;100445.38;;;9.83;100.00
26043;BME280;13818;52.156;5.382;2022-12-24T02:19:39;100464.19;;;9.80;100.00
26043;BME280;13818;52.156;5.382;2022-12-24T02:22:14;100467.22;;;9.72;100.00
26043;BME280;13818;52.156;5.382;2022-12-24T02:25:02;100467.31;;;9.71;100.00
26043;BME280;13818;52.156;5.382;2022-12-24T02:27:41;100474.97;;;9.77;100.00
26043;BME280;13818;52.156;5.382;2022-12-24T02:30:14;100477.78;;;9.74;100.00
26043;BME280;13818;52.156;5.382;2022-12-24T02:35:43;100476.59;;;9.62;100.00
26043;BME280;13818;52.156;5.382;2022-12-24T02:38:15;100484.88;;;9.56;100.00
26043;BME280;13818;52.156;5.382;2022-12-24T02:40:49;100487.25;;;9.62;100.00
26043;BME280;13818;52.156;5.382;2022-12-24T02:43:19;100488.47;;;9.55;100.00
26043;BME280;13818;52.156;5.382;2022-12-24T02:45:51;100483.25;;;9.52;100.00
26043;BME280;13818;52.156;5.382;2022-12-24T02:48:19;100484.28;;;9.49;100.00
26043;BME280;13818;52.156;5.382;2022-12-24T02:50:56;100477.09;;;9.51;100.00
26043;BME280;13818;52.156;5.382;2022-12-24T02:53:23;100480.03;;;9.45;100.00
26043;BME280;13818;52.156;5.382;2022-12-24T02:58:48;100494.34;;;9.42;100.00
26043;BME280;13818;52.156;5.382;2022-12-24T03:01:25;100501.75;;;9.36;100.00
26043;BME280;13818;52.156;5.382;2022-12-24T03:04:04;100502.50;;;9.39;100.00
26043;BME280;13818;52.156;5.382;2022-12-24T03:06:41;100500.88;;;9.35;100.00
26043;BME280;13818;52.156;5.382;2022-12-24T03:09:14;100498.09;;;9.38;100.00
26043;BME280;13818;52.156;5.382;2022-12-24T03:11:47;100500.25;;;9.30;100.00
26043;BME280;13818;52.156;5.382;2022-12-24T03:14:16;100507.44;;;9.28;100.00
26043;BME280;13818;52.156;5.382;2022-12-24T03:16:44;100504.78;;;9.28;100.00
26043;BME280;13818;52.156;5.382;2022-12-24T03:19:11;100506.50;;;9.29;100.00
26043;BME280;13818;52.156;5.382;2022-12-24T03:21:39;100501.69;;;9.37;100.00
26043;BME280;13818;52.156;5.382;2022-12-24T03:24:07;100495.81;;;9.31;100.00
26043;BME280;13818;52.156;5.382;2022-12-24T03:26:34;100501.03;;;9.32;100.00
26043;BME280;13818;52.156;5.382;2022-12-24T03:29:03;100510.94;;;9.28;100.00
26043;BME280;13818;52.156;5.382;2022-12-24T03:31:39;100518.94;;;9.28;100.00
26043;BME280;13818;52.156;5.382;2022-12-24T03:34:07;100521.78;;;9.24;100.00
26043;BME280;13818;52.156;5.382;2022-12-24T03:36:33;100527.38;;;9.18;100.00
26043;BME280;13818;52.156;5.382;2022-12-24T03:39:00;100530.00;;;9.19;100.00
26043;BME280;13818;52.156;5.382;2022-12-24T03:41:26;100524.88;;;9.15;100.00
26043;BME280;13818;52.156;5.382;2022-12-24T03:43:53;100531.66;;;9.22;100.00
26043;BME280;13818;52.156;5.382;2022-12-24T03:46:19;100532.78;;;9.16;100.00
26043;BME280;13818;52.156;5.382;2022-12-24T03:48:45;100532.38;;;9.25;100.00
26043;BME280;13818;52.156;5.382;2022-12-24T03:51:18;100535.16;;;9.22;100.00
26043;BME280;13818;52.156;5.382;2022-12-24T03:53:45;100531.44;;;9.26;100.00
26043;BME280;13818;52.156;5.382;2022-12-24T03:56:11;100542.13;;;9.25;100.00
26043;BME280;13818;52.156;5.382;2022-12-24T03:58:38;100542.94;;;9.27;100.00
26043;BME280;13818;52.156;5.382;2022-12-24T04:01:04;100541.13;;;9.27;100.00
26043;BME280;13818;52.156;5.382;2022-12-24T04:03:31;100533.44;;;9.21;100.00
26043;BME280;13818;52.156;5.382;2022-12-24T04:06:01;100548.19;;;9.28;100.00
26043;BME280;13818;52.156;5.382;2022-12-24T04:08:29;100543.72;;;9.29;100.00
26043;BME280;13818;52.156;5.382;2022-12-24T04:10:56;100545.34;;;9.33;100.00
26043;BME280;13818;52.156;5.382;2022-12-24T04:13:22;100552.16;;;9.39;100.00
26043;BME280;13818;52.156;5.382;2022-12-24T04:15:56;100546.47;;;9.27;100.00
26043;BME280;13818;52.156;5.382;2022-12-24T04:18:22;100541.78;;;9.33;100.00
26043;BME280;13818;52.156;5.382;2022-12-24T04:20:49;100546.91;;;9.37;100.00
26043;BME280;13818;52.156;5.382;2022-12-24T04:23:15;100538.84;;;9.39;100.00
26043;BME280;13818;52.156;5.382;2022-12-24T04:25:43;100539.50;;;9.44;100.00
26043;BME280;13818;52.156;5.382;2022-12-24T04:28:09;100551.16;;;9.41;100.00
26043;BME280;13818;52.156;5.382;2022-12-24T04:30:37;100556.09;;;9.49;100.00
26043;BME280;13818;52.156;5.382;2022-12-24T04:33:03;100549.66;;;9.55;100.00
26043;BME280;13818;52.156;5.382;2022-12-24T04:35:30;100546.00;;;9.57;100.00
26043;BME280;13818;52.156;5.382;2022-12-24T04:37:56;100552.16;;;9.58;100.00
26043;BME280;13818;52.156;5.382;2022-12-24T04:40:23;100558.34;;;9.58;100.00
26043;BME280;13818;52.156;5.382;2022-12-24T04:42:51;100568.66;;;9.66;100.00
26043;BME280;13818;52.156;5.382;2022-12-24T04:45:18;100570.88;;;9.56;100.00
26043;BME280;13818;52.156;5.382;2022-12-24T04:47:44;100567.13;;;9.60;100.00
26043;BME280;13818;52.156;5.382;2022-12-24T04:50:11;100564.25;;;9.65;100.00
26043;BME280;13818;52.156;5.382;2022-12-24T04:52:37;100558.72;;;9.70;100.00
26043;BME280;13818;52.156;5.382;2022-12-24T04:55:04;100561.31;;;9.71;100.00
26043;BME280;13818;52.156;5.382;2022-12-24T04:57:31;100567.28;;;9.76;100.00
26043;BME280;13818;52.156;5.382;2022-12-24T04:59:59;100569.00;;;9.77;100.00
26043;BME280;13818;52.156;5.382;2022-12-24T05:02:25;100577.19;;;9.73;100.00
26043;BME280;13818;52.156;5.382;2022-12-24T05:04:52;100572.78;;;9.72;100.00
26043;BME280;13818;52.156;5.382;2022-12-24T05:07:18;100582.38;;;9.76;100.00
26043;BME280;13818;52.156;5.382;2022-12-24T05:09:45;100573.31;;;9.80;100.00
26043;BME280;13818;52.156;5.382;2022-12-24T05:12:11;100583.75;;;9.85;100.00
26043;BME280;13818;52.156;5.382;2022-12-24T05:14:38;100583.69;;;9.86;100.00
26043;BME280;13818;52.156;5.382;2022-12-24T05:17:06;100576.47;;;9.88;100.00
26043;BME280;13818;52.156;5.382;2022-12-24T05:19:32;100568.47;;;9.88;100.00
26043;BME280;13818;52.156;5.382;2022-12-24T05:21:58;100575.41;;;9.92;100.00
26043;BME280;13818;52.156;5.382;2022-12-24T05:24:43;100570.78;;;9.96;100.00
26043;BME280;13818;52.156;5.382;2022-12-24T05:27:27;100581.38;;;9.98;100.00
26043;BME280;13818;52.156;5.382;2022-12-24T05:29:54;100588.41;;;9.99;100.00
26043;BME280;13818;52.156;5.382;2022-12-24T05:32:21;100583.09;;;9.99;100.00
26043;BME280;13818;52.156;5.382;2022-12-24T05:34:48;100585.53;;;10.03;100.00
26043;BME280;13818;52.156;5.382;2022-12-24T05:37:14;100593.47;;;10.05;100.00
26043;BME280;13818;52.156;5.382;2022-12-24T05:39:41;100590.78;;;10.05;100.00
26043;BME280;13818;52.156;5.382;2022-12-24T05:42:07;100607.69;;;10.04;100.00
26043;BME280;13818;52.156;5.382;2022-12-24T05:44:33;100605.47;;;9.94;100.00
26043;BME280;13818;52.156;5.382;2022-12-24T05:47:00;100592.22;;;9.93;100.00
26043;BME280;13818;52.156;5.382;2022-12-24T05:49:28;100592.88;;;9.98;100.00
26043;BME280;13818;52.156;5.382;2022-12-24T05:51:55;100588.72;;;9.92;100.00
26043;BME280;13818;52.156;5.382;2022-12-24T05:54:21;100592.78;;;10.00;100.00
26043;BME280;13818;52.156;5.382;2022-12-24T05:56:47;100599.63;;;10.05;100.00
26043;BME280;13818;52.156;5.382;2022-12-24T05:59:14;100596.13;;;10.05;100.00
26043;BME280;13818;52.156;5.382;2022-12-24T06:01:40;100601.28;;;10.08;100.00
26043;BME280;13818;52.156;5.382;2022-12-24T06:04:09;100605.81;;;10.06;100.00
26043;BME280;13818;52.156;5.382;2022-12-24T06:06:37;100620.56;;;10.13;100.00
26043;BME280;13818;52.156;5.382;2022-12-24T06:09:03;100621.50;;;10.12;100.00
26043;BME280;13818;52.156;5.382;2022-12-24T06:11:30;100603.78;;;10.11;100.00
26043;BME280;13818;52.156;5.382;2022-12-24T06:13:56;100602.00;;;10.12;100.00
26043;BME280;13818;52.156;5.382;2022-12-24T06:16:24;100606.53;;;10.09;100.00
26043;BME280;13818;52.156;5.382;2022-12-24T06:18:50;100615.44;;;10.08;100.00
26043;BME280;13818;52.156;5.382;2022-12-24T06:21:17;100619.75;;;10.11;100.00
26043;BME280;13818;52.156;5.382;2022-12-24T06:23:45;100626.19;;;10.07;100.00
26043;BME280;13818;52.156;5.382;2022-12-24T06:26:13;100628.72;;;10.10;100.00
26043;BME280;13818;52.156;5.382;2022-12-24T06:28:40;100621.66;;;10.09;100.00
26043;BME280;13818;52.156;5.382;2022-12-24T06:31:10;100619.13;;;10.06;100.00
26043;BME280;13818;52.156;5.382;2022-12-24T06:33:37;100626.97;;;10.09;100.00
26043;BME280;13818;52.156;5.382;2022-12-24T06:36:05;100635.63;;;10.14;100.00
26043;BME280;13818;52.156;5.382;2022-12-24T06:38:32;100632.09;;;10.14;100.00
26043;BME280;13818;52.156;5.382;2022-12-24T06:41:04;100631.31;;;10.12;100.00
26043;BME280;13818;52.156;5.382;2022-12-24T06:43:31;100636.47;;;10.15;100.00
26043;BME280;13818;52.156;5.382;2022-12-24T06:45:59;100637.34;;;10.15;100.00
26043;BME280;13818;52.156;5.382;2022-12-24T06:48:25;100645.25;;;10.17;100.00
26043;BME280;13818;52.156;5.382;2022-12-24T06:50:52;100641.88;;;10.13;100.00
26043;BME280;13818;52.156;5.382;2022-12-24T06:53:18;100649.06;;;10.11;100.00
26043;BME280;13818;52.156;5.382;2022-12-24T06:55:45;100655.19;;;10.13;100.00
26043;BME280;13818;52.156;5.382;2022-12-24T06:58:12;100654.09;;;10.17;100.00
26043;BME280;13818;52.156;5.382;2022-12-24T07:00:39;100656.56;;;10.22;100.00
26043;BME280;13818;52.156;5.382;2022-12-24T07:03:05;100655.75;;;10.20;100.00
26043;BME280;13818;52.156;5.382;2022-12-24T07:05:32;100654.91;;;10.19;100.00
26043;BME280;13818;52.156;5.382;2022-12-24T07:07:58;100654.19;;;10.16;100.00
26043;BME280;13818;52.156;5.382;2022-12-24T07:10:24;100652.31;;;10.18;100.00
26043;BME280;13818;52.156;5.382;2022-12-24T07:12:51;100663.63;;;10.23;100.00
26043;BME280;13818;52.156;5.382;2022-12-24T07:15:19;100659.59;;;10.14;100.00
26043;BME280;13818;52.156;5.382;2022-12-24T07:17:45;100662.09;;;10.17;100.00
26043;BME280;13818;52.156;5.382;2022-12-24T07:20:12;100664.69;;;10.19;100.00
26043;BME280;13818;52.156;5.382;2022-12-24T07:22:39;100667.38;;;10.19;100.00
26043;BME280;13818;52.156;5.382;2022-12-24T07:25:06;100672.91;;;10.14;100.00
26043;BME280;13818;52.156;5.382;2022-12-24T07:27:33;100665.72;;;10.16;100.00
26043;BME280;13818;52.156;5.382;2022-12-24T07:29:59;100675.19;;;10.03;100.00
26043;BME280;13818;52.156;5.382;2022-12-24T07:32:27;100686.50;;;10.08;100.00
26043;BME280;13818;52.156;5.382;2022-12-24T07:34:54;100687.50;;;10.05;100.00
26043;BME280;13818;52.156;5.382;2022-12-24T07:37:20;100700.75;;;10.07;100.00
26043;BME280;13818;52.156;5.382;2022-12-24T07:39:46;100712.19;;;10.09;100.00
26043;BME280;13818;52.156;5.382;2022-12-24T07:42:13;100719.09;;;10.13;100.00
26043;BME280;13818;52.156;5.382;2022-12-24T07:44:39;100722.56;;;10.15;100.00
26043;BME280;13818;52.156;5.382;2022-12-24T07:47:06;100731.34;;;10.17;100.00
26043;BME280;13818;52.156;5.382;2022-12-24T07:49:34;100727.91;;;10.15;100.00
26043;BME280;13818;52.156;5.382;2022-12-24T07:52:00;100743.97;;;10.14;100.00
26043;BME280;13818;52.156;5.382;2022-12-24T07:54:27;100742.00;;;10.17;100.00
26043;BME280;13818;52.156;5.382;2022-12-24T07:56:53;100752.66;;;10.17;100.00
26043;BME280;13818;52.156;5.382;2022-12-24T07:59:20;100758.19;;;10.13;100.00
26043;BME280;13818;52.156;5.382;2022-12-24T08:01:46;100764.03;;;10.21;100.00
26043;BME280;13818;52.156;5.382;2022-12-24T08:04:13;100775.84;;;10.15;100.00
26043;BME280;13818;52.156;5.382;2022-12-24T08:06:41;100771.38;;;10.16;100.00
26043;BME280;13818;52.156;5.382;2022-12-24T08:09:07;100764.03;;;10.21;100.00
26043;BME280;13818;52.156;5.382;2022-12-24T08:11:33;100781.91;;;10.19;100.00
26043;BME280;13818;52.156;5.382;2022-12-24T08:14:00;100779.06;;;10.22;100.00
26043;BME280;13818;52.156;5.382;2022-12-24T08:16:26;100778.97;;;10.25;100.00
26043;BME280;13818;52.156;5.382;2022-12-24T08:18:53;100789.59;;;10.25;100.00
26043;BME280;13818;52.156;5.382;2022-12-24T08:21:19;100794.22;;;10.21;100.00
26043;BME280;13818;52.156;5.382;2022-12-24T08:23:47;100797.81;;;10.20;100.00
26043;BME280;13818;52.156;5.382;2022-12-24T08:26:13;100798.66;;;10.21;100.00
26043;BME280;13818;52.156;5.382;2022-12-24T08:28:41;100798.31;;;10.29;100.00
26043;BME280;13818;52.156;5.382;2022-12-24T08:31:07;100801.91;;;10.28;100.00
26043;BME280;13818;52.156;5.382;2022-12-24T08:33:34;100803.34;;;10.35;100.00
26043;BME280;13818;52.156;5.382;2022-12-24T08:36:01;100803.34;;;10.35;100.00
26043;BME280;13818;52.156;5.382;2022-12-24T08:38:28;100798.84;;;10.37;100.00
26043;BME280;13818;52.156;5.382;2022-12-24T08:40:55;100804.91;;;10.40;100.00
26043;BME280;13818;52.156;5.382;2022-12-24T08:43:22;100821.34;;;10.50;100.00
26043;BME280;13818;52.156;5.382;2022-12-24T08:45:50;100819.38;;;10.54;100.00
26043;BME280;13818;52.156;5.382;2022-12-24T08:48:17;100821.28;;;10.52;100.00
26043;BME280;13818;52.156;5.382;2022-12-24T08:50:44;100832.44;;;10.60;100.00
26043;BME280;13818;52.156;5.382;2022-12-24T08:53:10;100827.09;;;10.60;100.00
26043;BME280;13818;52.156;5.382;2022-12-24T08:55:37;100835.69;;;10.67;100.00
26043;BME280;13818;52.156;5.382;2022-12-24T08:58:05;100840.28;;;10.63;100.00
26043;BME280;13818;52.156;5.382;2022-12-24T09:00:31;100826.97;;;10.63;100.00
26043;BME280;13818;52.156;5.382;2022-12-24T09:02:58;100847.41;;;10.63;100.00
26043;BME280;13818;52.156;5.382;2022-12-24T09:05:24;100851.72;;;10.65;100.00
26043;BME280;13818;52.156;5.382;2022-12-24T09:07:51;100851.53;;;10.70;100.00
26043;BME280;13818;52.156;5.382;2022-12-24T09:10:17;100852.69;;;10.64;100.00
26043;BME280;13818;52.156;5.382;2022-12-24T09:12:43;100862.28;;;10.68;100.00
26043;BME280;13818;52.156;5.382;2022-12-24T09:15:11;100859.41;;;10.73;100.00
26043;BME280;13818;52.156;5.382;2022-12-24T09:17:38;100857.94;;;10.85;100.00
26043;BME280;13818;52.156;5.382;2022-12-24T09:20:06;100870.28;;;10.87;100.00
26043;BME280;13818;52.156;5.382;2022-12-24T09:22:33;100871.13;;;10.88;100.00
26043;BME280;13818;52.156;5.382;2022-12-24T09:25:00;100863.38;;;10.83;100.00
26043;BME280;13818;52.156;5.382;2022-12-24T09:27:28;100877.25;;;10.90;100.00
26043;BME280;13818;52.156;5.382;2022-12-24T09:29:55;100884.41;;;10.89;100.00
26043;BME280;13818;52.156;5.382;2022-12-24T09:32:23;100885.13;;;10.93;100.00
26043;BME280;13818;52.156;5.382;2022-12-24T09:34:49;100892.69;;;11.02;100.00
26043;BME280;13818;52.156;5.382;2022-12-24T09:37:15;100890.03;;;11.02;100.00
26043;BME280;13818;52.156;5.382;2022-12-24T09:39:42;100909.19;;;10.91;100.00
26043;BME280;13818;52.156;5.382;2022-12-24T09:42:19;100898.09;;;11.01;100.00
26043;BME280;13818;52.156;5.382;2022-12-24T09:44:54;100905.09;;;11.03;100.00
26043;BME280;13818;52.156;5.382;2022-12-24T09:47:28;100914.09;;;11.01;100.00
26043;BME280;13818;52.156;5.382;2022-12-24T09:49:59;100921.88;;;11.05;100.00
26043;BME280;13818;52.156;5.382;2022-12-24T09:52:32;100921.66;;;11.10;100.00
26043;BME280;13818;52.156;5.382;2022-12-24T09:55:03;100917.91;;;11.14;100.00
26043;BME280;13818;52.156;5.382;2022-12-24T09:57:35;100899.81;;;11.21;100.00
26043;BME280;13818;52.156;5.382;2022-12-24T10:00:10;100920.94;;;11.26;100.00
26043;BME280;13818;52.156;5.382;2022-12-24T10:02:42;100917.75;;;11.36;100.00
26043;BME280;13818;52.156;5.382;2022-12-24T10:05:12;100913.28;;;11.18;100.00
26043;BME280;13818;52.156;5.382;2022-12-24T10:07:46;100919.63;;;11.15;100.00
26043;BME280;13818;52.156;5.382;2022-12-24T10:10:19;100923.19;;;11.16;100.00
26043;BME280;13818;52.156;5.382;2022-12-24T10:12:57;100931.84;;;11.21;100.00
26043;BME280;13818;52.156;5.382;2022-12-24T10:15:33;100923.91;;;11.38;100.00
26043;BME280;13818;52.156;5.382;2022-12-24T10:18:09;100928.47;;;11.54;100.00
26043;BME280;13818;52.156;5.382;2022-12-24T10:20:44;100923.22;;;11.52;100.00
26043;BME280;13818;52.156;5.382;2022-12-24T10:23:18;100926.44;;;11.59;100.00
26043;BME280;13818;52.156;5.382;2022-12-24T10:25:51;100920.44;;;11.73;100.00
26043;BME280;13818;52.156;5.382;2022-12-24T10:28:22;100930.34;;;11.88;100.00
26043;BME280;13818;52.156;5.382;2022-12-24T10:30:54;100925.69;;;11.92;100.00
26043;BME280;13818;52.156;5.382;2022-12-24T10:33:28;100919.50;;;11.92;100.00
26043;BME280;13818;52.156;5.382;2022-12-24T10:35:57;100918.97;;;12.02;100.00
26043;BME280;13818;52.156;5.382;2022-12-24T10:38:23;100922.91;;;11.95;100.00
26043;BME280;13818;52.156;5.382;2022-12-24T10:40:52;100929.22;;;12.12;100.00
26043;BME280;13818;52.156;5.382;2022-12-24T10:43:22;100936.34;;;12.11;100.00
26043;BME280;13818;52.156;5.382;2022-12-24T10:45:51;100929.13;;;11.96;100.00
26043;BME280;13818;52.156;5.382;2022-12-24T10:48:24;100931.56;;;12.00;100.00
26043;BME280;13818;52.156;5.382;2022-12-24T10:50:58;100933.59;;;12.13;100.00
26043;BME280;13818;52.156;5.382;2022-12-24T10:53:33;100929.22;;;12.12;100.00
26043;BME280;13818;52.156;5.382;2022-12-24T10:56:04;100930.47;;;12.04;100.00
26043;BME280;13818;52.156;5.382;2022-12-24T10:58:31;100927.16;;;12.17;100.00
26043;BME280;13818;52.156;5.382;2022-12-24T11:00:58;100930.38;;;12.06;100.00
26043;BME280;13818;52.156;5.382;2022-12-24T11:03:29;100929.84;;;11.99;100.00
26043;BME280;13818;52.156;5.382;2022-12-24T11:06:03;100930.56;;;12.03;100.00
26043;BME280;13818;52.156;5.382;2022-12-24T11:08:33;100937.63;;;12.04;100.00
26043;BME280;13818;52.156;5.382;2022-12-24T11:11:01;100937.84;;;12.17;100.00
26043;BME280;13818;52.156;5.382;2022-12-24T11:13:30;100940.97;;;12.25;100.00
26043;BME280;13818;52.156;5.382;2022-12-24T11:16:03;100940.63;;;12.15;100.00
26043;BME280;13818;52.156;5.382;2022-12-24T11:18:32;100933.53;;;11.97;100.00
26043;BME280;13818;52.156;5.382;2022-12-24T11:21:02;100936.47;;;11.91;100.00
26043;BME280;13818;52.156;5.382;2022-12-24T11:23:29;100928.13;;;11.79;100.00
26043;BME280;13818;52.156;5.382;2022-12-24T11:25:56;100929.47;;;11.88;100.00
26043;BME280;13818;52.156;5.382;2022-12-24T11:28:25;100939.06;;;11.92;100.00
26043;BME280;13818;52.156;5.382;2022-12-24T11:30:58;100945.34;;;11.91;100.00
26043;BME280;13818;52.156;5.382;2022-12-24T11:33:26;100952.50;;;11.91;100.00
26043;BME280;13818;52.156;5.382;2022-12-24T11:35:56;100950.34;;;11.80;100.00
26043;BME280;13818;52.156;5.382;2022-12-24T11:38:27;100956.06;;;11.72;100.00
26043;BME280;13818;52.156;5.382;2022-12-24T11:40:59;100952.63;;;11.70;100.00
26043;BME280;13818;52.156;5.382;2022-12-24T11:43:37;100952.00;;;11.46;100.00
26043;BME280;13818;52.156;5.382;2022-12-24T11:46:17;100956.56;;;11.44;100.00
26043;BME280;13818;52.156;5.382;2022-12-24T11:48:44;100948.03;;;11.54;100.00
26043;BME280;13818;52.156;5.382;2022-12-24T11:51:23;100961.66;;;11.48;100.00
26043;BME280;13818;52.156;5.382;2022-12-24T11:53:58;100965.22;;;11.49;100.00
26043;BME280;13818;52.156;5.382;2022-12-24T11:56:32;100956.03;;;11.54;100.00
26043;BME280;13818;52.156;5.382;2022-12-24T11:59:06;100966.06;;;11.30;100.00
26043;BME280;13818;52.156;5.382;2022-12-24T12:01:38;100968.91;;;11.46;100.00
26043;BME280;13818;52.156;5.382;2022-12-24T12:04:12;100957.34;;;11.46;100.00
26043;BME280;13818;52.156;5.382;2022-12-24T12:06:42;100962.53;;;11.49;100.00
26043;BME280;13818;52.156;5.382;2022-12-24T12:09:12;100966.16;;;11.48;100.00
26043;BME280;13818;52.156;5.382;2022-12-24T12:11:43;100971.31;;;11.51;100.00
26043;BME280;13818;52.156;5.382;2022-12-24T12:14:19;100982.59;;;11.58;100.00
26043;BME280;13818;52.156;5.382;2022-12-24T12:16:55;100976.34;;;11.76;100.00
26043;BME280;13818;52.156;5.382;2022-12-24T12:19:27;100982.09;;;11.86;100.00
26043;BME280;13818;52.156;5.382;2022-12-24T12:21:56;100983.88;;;11.68;100.00
26043;BME280;13818;52.156;5.382;2022-12-24T12:24:28;100991.38;;;11.60;100.00
26043;BME280;13818;52.156;5.382;2022-12-24T12:27:04;100991.41;;;11.77;100.00
26043;BME280;13818;52.156;5.382;2022-12-24T12:29:35;100999.44;;;11.77;100.00
26043;BME280;13818;52.156;5.382;2022-12-24T12:32:06;101009.88;;;11.45;100.00
26043;BME280;13818;52.156;5.382;2022-12-24T12:34:40;101004.88;;;11.56;100.00
26043;BME280;13818;52.156;5.382;2022-12-24T12:37:11;101000.69;;;11.51;100.00
26043;BME280;13818;52.156;5.382;2022-12-24T12:39:41;101006.75;;;11.54;100.00
26043;BME280;13818;52.156;5.382;2022-12-24T12:42:14;101006.97;;;11.50;100.00
26043;BME280;13818;52.156;5.382;2022-12-24T12:44:57;101003.00;;;11.59;100.00
26043;BME280;13818;52.156;5.382;2022-12-24T12:47:44;101007.00;;;11.67;100.00
26043;BME280;13818;52.156;5.382;2022-12-24T12:50:22;101008.38;;;11.76;100.00
26043;BME280;13818;52.156;5.382;2022-12-24T12:53:11;101020.59;;;11.63;100.00
26043;BME280;13818;52.156;5.382;2022-12-24T12:55:49;101019.59;;;11.46;100.00
26043;BME280;13818;52.156;5.382;2022-12-24T12:58:22;101020.38;;;11.48;100.00